EJU45GE LSGG-LEZL
Flight info
| Callsign | EJU45GE |
|---|---|
| Flight time | 1h 57m |
| Altitude | 29000 |
| Route | DEPUL T544 LSE DCT RUSIT DCT ESIDA/N0407F310 DCT LERGA/N0431F370 DCT MINSO DCT NARAK DCT AGN DCT MAQAB DCT TIVLI N869 ZAR Z245 CJN DCT PALIO DCT AKOKI DCT GOTOR DCT KAMPO DCT MONTO DCT MOLIN DCT HIJ |
| Aircraft | A320/M-SDE2E3FGHIJ1RWXYZ/LB1 |
Departure
| Time | 2026-03-27 12:07 |
|---|---|
| Airport | Geneva International Airport (LSGG) |
Arrival
| Time | 2026-03-27 14:04 |
|---|---|
| Airport | Seville Airport (LEZL) |
| Time | Latitude | Longitude | Altitude | Speed | Heading |
|---|---|---|---|---|---|
| 2026-03-27 11:05 | 46.23048 | 6.10265 | 1393 ft | 0 kts | 181° |
| 2026-03-27 11:59 | 46.23044 | 6.10265 | 1393 ft | 3 kts | 181° |
| 2026-03-27 11:59 | 46.23021 | 6.10250 | 1405 ft | 5 kts | 232° |
| 2026-03-27 11:59 | 46.23033 | 6.10197 | 1396 ft | 5 kts | 311° |
| 2026-03-27 12:00 | 46.23057 | 6.10147 | 1398 ft | 6 kts | 285° |
| 2026-03-27 12:00 | 46.23035 | 6.10097 | 1399 ft | 9 kts | 225° |
| 2026-03-27 12:00 | 46.22983 | 6.10020 | 1402 ft | 12 kts | 225° |
| 2026-03-27 12:00 | 46.22923 | 6.09932 | 1406 ft | 12 kts | 225° |
| 2026-03-27 12:01 | 46.22866 | 6.09849 | 1404 ft | 12 kts | 225° |
| 2026-03-27 12:01 | 46.22811 | 6.09769 | 1397 ft | 10 kts | 225° |
| 2026-03-27 12:01 | 46.22765 | 6.09701 | 1400 ft | 9 kts | 225° |
| 2026-03-27 12:01 | 46.22707 | 6.09616 | 1403 ft | 14 kts | 225° |
| 2026-03-27 12:02 | 46.22637 | 6.09513 | 1395 ft | 15 kts | 225° |
| 2026-03-27 12:02 | 46.22579 | 6.09420 | 1403 ft | 11 kts | 235° |
| 2026-03-27 12:02 | 46.22553 | 6.09328 | 1402 ft | 10 kts | 258° |
| 2026-03-27 12:02 | 46.22551 | 6.09252 | 1409 ft | 2 kts | 270° |
| 2026-03-27 12:03 | 46.22551 | 6.09251 | 1409 ft | 0 kts | 270° |
| 2026-03-27 12:05 | 46.22551 | 6.09241 | 1410 ft | 3 kts | 270° |
| 2026-03-27 12:05 | 46.22565 | 6.09187 | 1416 ft | 9 kts | 308° |
| 2026-03-27 12:05 | 46.22608 | 6.09140 | 1416 ft | 3 kts | 1° |
| 2026-03-27 12:06 | 46.22622 | 6.09157 | 1420 ft | 0 kts | 45° |
| 2026-03-27 12:06 | 46.22673 | 6.09232 | 1417 ft | 36 kts | 45° |
| 2026-03-27 12:06 | 46.23013 | 6.09731 | 1415 ft | 101 kts | 45° |
| 2026-03-27 12:07 | 46.23638 | 6.10651 | 1430 ft | 149 kts | 46° |
| 2026-03-27 12:07 | 46.24330 | 6.11692 | 2209 ft | 142 kts | 46° |
| 2026-03-27 12:07 | 46.25017 | 6.12706 | 3022 ft | 141 kts | 44° |
| 2026-03-27 12:07 | 46.25690 | 6.13692 | 3713 ft | 138 kts | 43° |
| 2026-03-27 12:08 | 46.26367 | 6.14682 | 4340 ft | 138 kts | 43° |
| 2026-03-27 12:08 | 46.27059 | 6.15697 | 4822 ft | 150 kts | 44° |
| 2026-03-27 12:08 | 46.27845 | 6.16849 | 5109 ft | 172 kts | 44° |
| 2026-03-27 12:08 | 46.28746 | 6.18169 | 5384 ft | 196 kts | 44° |
| 2026-03-27 12:09 | 46.29764 | 6.19661 | 5759 ft | 220 kts | 45° |
| 2026-03-27 12:09 | 46.30884 | 6.21307 | 6367 ft | 235 kts | 45° |
| 2026-03-27 12:09 | 46.32036 | 6.23003 | 7244 ft | 238 kts | 45° |
| 2026-03-27 12:09 | 46.33205 | 6.24722 | 8111 ft | 242 kts | 45° |
| 2026-03-27 12:10 | 46.34400 | 6.26478 | 8930 ft | 247 kts | 45° |
| 2026-03-27 12:10 | 46.35678 | 6.28163 | 9790 ft | 251 kts | 32° |
| 2026-03-27 12:10 | 46.37360 | 6.28928 | 10534 ft | 263 kts | 7° |
| 2026-03-27 12:10 | 46.39246 | 6.28430 | 10825 ft | 295 kts | 338° |
| 2026-03-27 12:11 | 46.40841 | 6.26381 | 11276 ft | 324 kts | 307° |
| 2026-03-27 12:11 | 46.41587 | 6.23226 | 11975 ft | 344 kts | 279° |
| 2026-03-27 12:11 | 46.41236 | 6.19741 | 12714 ft | 361 kts | 251° |
| 2026-03-27 12:11 | 46.39815 | 6.16680 | 13412 ft | 375 kts | 224° |
| 2026-03-27 12:12 | 46.37624 | 6.14584 | 14070 ft | 383 kts | 206° |
| 2026-03-27 12:12 | 46.35203 | 6.12897 | 14659 ft | 389 kts | 205° |
| 2026-03-27 12:12 | 46.32739 | 6.11204 | 15215 ft | 396 kts | 205° |
| 2026-03-27 12:12 | 46.30226 | 6.09486 | 15760 ft | 403 kts | 205° |
| 2026-03-27 12:13 | 46.27671 | 6.07742 | 16302 ft | 409 kts | 205° |
| 2026-03-27 12:13 | 46.25075 | 6.05966 | 16836 ft | 416 kts | 206° |
| 2026-03-27 12:13 | 46.22437 | 6.04158 | 17366 ft | 423 kts | 206° |
| 2026-03-27 12:13 | 46.19776 | 6.02274 | 17888 ft | 429 kts | 211° |
| 2026-03-27 12:14 | 46.17285 | 5.99873 | 18379 ft | 433 kts | 222° |
| 2026-03-27 12:14 | 46.15086 | 5.96898 | 18817 ft | 433 kts | 233° |
| 2026-03-27 12:14 | 46.13251 | 5.93475 | 19338 ft | 431 kts | 242° |
| 2026-03-27 12:14 | 46.11550 | 5.89902 | 19907 ft | 434 kts | 242° |
| 2026-03-27 12:15 | 46.09831 | 5.86309 | 20495 ft | 437 kts | 242° |
| 2026-03-27 12:15 | 46.08101 | 5.82700 | 21015 ft | 440 kts | 242° |
| 2026-03-27 12:15 | 46.06353 | 5.79063 | 21564 ft | 443 kts | 242° |
| 2026-03-27 12:15 | 46.04589 | 5.75396 | 22120 ft | 447 kts | 242° |
| 2026-03-27 12:16 | 46.02814 | 5.71709 | 22689 ft | 450 kts | 242° |
| 2026-03-27 12:16 | 46.01019 | 5.67986 | 23242 ft | 455 kts | 243° |
| 2026-03-27 12:16 | 45.99206 | 5.64232 | 23799 ft | 459 kts | 243° |
| 2026-03-27 12:16 | 45.97380 | 5.60459 | 24244 ft | 460 kts | 243° |
| 2026-03-27 12:17 | 45.95581 | 5.56648 | 24661 ft | 462 kts | 244° |
| 2026-03-27 12:17 | 45.93832 | 5.52765 | 25048 ft | 464 kts | 245° |
| 2026-03-27 12:17 | 45.92123 | 5.48834 | 25570 ft | 463 kts | 246° |
| 2026-03-27 12:17 | 45.90431 | 5.44890 | 26042 ft | 464 kts | 246° |
| 2026-03-27 12:18 | 45.88732 | 5.40939 | 26465 ft | 467 kts | 246° |
| 2026-03-27 12:18 | 45.87008 | 5.36974 | 26845 ft | 470 kts | 246° |
| 2026-03-27 12:18 | 45.85260 | 5.33003 | 27241 ft | 472 kts | 245° |
| 2026-03-27 12:18 | 45.83489 | 5.29012 | 27613 ft | 476 kts | 245° |
| 2026-03-27 12:19 | 45.81702 | 5.25009 | 27983 ft | 479 kts | 245° |
| 2026-03-27 12:19 | 45.79898 | 5.20985 | 28361 ft | 481 kts | 245° |
| 2026-03-27 12:19 | 45.78088 | 5.16945 | 28723 ft | 483 kts | 245° |
| 2026-03-27 12:19 | 45.76267 | 5.12883 | 29080 ft | 485 kts | 245° |
| 2026-03-27 12:20 | 45.74446 | 5.08806 | 29365 ft | 487 kts | 245° |
| 2026-03-27 12:20 | 45.72698 | 5.04671 | 29800 ft | 484 kts | 248° |
| 2026-03-27 12:20 | 45.71044 | 5.00476 | 30197 ft | 484 kts | 249° |
| 2026-03-27 12:20 | 45.69445 | 4.96233 | 30471 ft | 485 kts | 250° |
| 2026-03-27 12:21 | 45.67861 | 4.91960 | 30742 ft | 487 kts | 250° |
| 2026-03-27 12:21 | 45.66271 | 4.87677 | 30997 ft | 488 kts | 251° |
| 2026-03-27 12:21 | 45.64712 | 4.83363 | 31274 ft | 489 kts | 251° |
| 2026-03-27 12:21 | 45.63180 | 4.79014 | 31532 ft | 490 kts | 252° |
| 2026-03-27 12:22 | 45.61664 | 4.74660 | 31874 ft | 489 kts | 252° |
| 2026-03-27 12:22 | 45.60153 | 4.70317 | 32245 ft | 488 kts | 252° |
| 2026-03-27 12:22 | 45.58635 | 4.65987 | 32598 ft | 486 kts | 252° |
| 2026-03-27 12:22 | 45.57117 | 4.61697 | 33065 ft | 482 kts | 252° |
| 2026-03-27 12:23 | 45.55601 | 4.57443 | 33480 ft | 480 kts | 252° |
| 2026-03-27 12:23 | 45.54085 | 4.53208 | 33842 ft | 479 kts | 252° |
| 2026-03-27 12:23 | 45.52569 | 4.48976 | 34206 ft | 478 kts | 252° |
| 2026-03-27 12:23 | 45.51057 | 4.44759 | 34506 ft | 478 kts | 252° |
| 2026-03-27 12:24 | 45.49545 | 4.40549 | 34784 ft | 477 kts | 251° |
| 2026-03-27 12:24 | 45.48036 | 4.36346 | 35056 ft | 476 kts | 251° |
| 2026-03-27 12:24 | 45.46528 | 4.32149 | 35334 ft | 475 kts | 251° |
| 2026-03-27 12:24 | 45.45017 | 4.27960 | 35594 ft | 475 kts | 251° |
| 2026-03-27 12:25 | 45.43508 | 4.23783 | 35842 ft | 473 kts | 251° |
| 2026-03-27 12:25 | 45.42003 | 4.19633 | 36171 ft | 470 kts | 250° |
| 2026-03-27 12:25 | 45.40503 | 4.15506 | 36452 ft | 469 kts | 250° |
| 2026-03-27 12:25 | 45.39006 | 4.11387 | 36697 ft | 468 kts | 250° |
| 2026-03-27 12:26 | 45.37510 | 4.07269 | 36919 ft | 468 kts | 250° |
| 2026-03-27 12:26 | 45.36038 | 4.03214 | 37135 ft | 468 kts | 250° |
| 2026-03-27 12:26 | 45.34543 | 3.99097 | 37204 ft | 469 kts | 250° |
| 2026-03-27 12:27 | 45.31541 | 3.90863 | 37198 ft | 469 kts | 250° |
| 2026-03-27 12:27 | 45.28530 | 3.82643 | 37168 ft | 468 kts | 250° |
| 2026-03-27 12:28 | 45.25447 | 3.74504 | 37209 ft | 471 kts | 244° |
| 2026-03-27 12:28 | 45.21701 | 3.66825 | 37198 ft | 473 kts | 242° |
| 2026-03-27 12:29 | 45.17927 | 3.59174 | 37198 ft | 474 kts | 242° |
| 2026-03-27 12:29 | 45.14144 | 3.51530 | 37203 ft | 474 kts | 242° |
| 2026-03-27 12:30 | 45.10361 | 3.43896 | 37192 ft | 474 kts | 242° |
| 2026-03-27 12:30 | 45.06571 | 3.36265 | 37198 ft | 474 kts | 242° |
| 2026-03-27 12:31 | 45.02773 | 3.28643 | 37203 ft | 474 kts | 242° |
| 2026-03-27 12:31 | 44.98972 | 3.21025 | 37197 ft | 474 kts | 242° |
| 2026-03-27 12:32 | 44.95159 | 3.13423 | 37203 ft | 474 kts | 241° |
| 2026-03-27 12:32 | 44.91339 | 3.05826 | 37196 ft | 474 kts | 241° |
| 2026-03-27 12:33 | 44.87522 | 2.98247 | 37177 ft | 474 kts | 241° |
| 2026-03-27 12:33 | 44.83716 | 2.90668 | 37195 ft | 472 kts | 242° |
| 2026-03-27 12:34 | 44.80709 | 2.84272 | 37192 ft | 470 kts | 244° |
| 2026-03-27 12:34 | 44.77223 | 2.76503 | 37202 ft | 469 kts | 245° |
| 2026-03-27 12:35 | 44.73719 | 2.68757 | 37203 ft | 469 kts | 244° |
| 2026-03-27 12:35 | 44.70164 | 2.61067 | 37193 ft | 469 kts | 243° |
| 2026-03-27 12:36 | 44.66584 | 2.53412 | 37212 ft | 468 kts | 243° |
| 2026-03-27 12:36 | 44.63012 | 2.45780 | 37204 ft | 468 kts | 243° |
| 2026-03-27 12:37 | 44.59446 | 2.38154 | 37206 ft | 467 kts | 243° |
| 2026-03-27 12:37 | 44.55882 | 2.30534 | 37202 ft | 467 kts | 243° |
| 2026-03-27 12:38 | 44.52312 | 2.22936 | 37188 ft | 466 kts | 243° |
| 2026-03-27 12:38 | 44.48749 | 2.15362 | 37200 ft | 465 kts | 243° |
| 2026-03-27 12:39 | 44.45180 | 2.07808 | 37224 ft | 465 kts | 243° |
| 2026-03-27 12:39 | 44.41614 | 2.00259 | 37219 ft | 465 kts | 243° |
| 2026-03-27 12:40 | 44.38036 | 1.92730 | 37247 ft | 465 kts | 243° |
| 2026-03-27 12:40 | 44.34459 | 1.85214 | 37227 ft | 464 kts | 242° |
| 2026-03-27 12:41 | 44.30881 | 1.77725 | 37252 ft | 463 kts | 242° |
| 2026-03-27 12:41 | 44.27335 | 1.70234 | 37254 ft | 461 kts | 243° |
| 2026-03-27 12:42 | 44.23894 | 1.62695 | 37262 ft | 460 kts | 244° |
| 2026-03-27 12:42 | 44.20470 | 1.55166 | 37258 ft | 460 kts | 244° |
| 2026-03-27 12:43 | 44.17018 | 1.47668 | 37258 ft | 459 kts | 243° |
| 2026-03-27 12:43 | 44.13557 | 1.40207 | 37265 ft | 458 kts | 243° |
| 2026-03-27 12:44 | 44.10102 | 1.32773 | 37276 ft | 457 kts | 243° |
| 2026-03-27 12:44 | 44.06647 | 1.25354 | 37278 ft | 457 kts | 243° |
| 2026-03-27 12:45 | 44.03191 | 1.17948 | 37286 ft | 456 kts | 243° |
| 2026-03-27 12:45 | 43.99738 | 1.10553 | 37260 ft | 455 kts | 242° |
| 2026-03-27 12:46 | 43.96292 | 1.03194 | 37287 ft | 454 kts | 242° |
| 2026-03-27 12:46 | 43.92841 | 0.95858 | 37287 ft | 453 kts | 242° |
| 2026-03-27 12:47 | 43.89334 | 0.88589 | 37293 ft | 456 kts | 237° |
| 2026-03-27 12:47 | 43.84805 | 0.82332 | 37293 ft | 462 kts | 226° |
| 2026-03-27 12:48 | 43.80005 | 0.76401 | 37275 ft | 463 kts | 226° |
| 2026-03-27 12:48 | 43.75199 | 0.70480 | 37286 ft | 462 kts | 226° |
| 2026-03-27 12:49 | 43.70402 | 0.64575 | 37287 ft | 461 kts | 226° |
| 2026-03-27 12:49 | 43.65608 | 0.58691 | 37294 ft | 461 kts | 226° |
| 2026-03-27 12:50 | 43.60820 | 0.52816 | 37288 ft | 460 kts | 226° |
| 2026-03-27 12:50 | 43.56062 | 0.46989 | 37292 ft | 461 kts | 226° |
| 2026-03-27 12:51 | 43.51265 | 0.41133 | 37291 ft | 461 kts | 226° |
| 2026-03-27 12:51 | 43.46463 | 0.35297 | 37281 ft | 460 kts | 225° |
| 2026-03-27 12:52 | 43.41659 | 0.29484 | 37293 ft | 459 kts | 225° |
| 2026-03-27 12:52 | 43.36879 | 0.23687 | 37299 ft | 458 kts | 225° |
| 2026-03-27 12:53 | 43.32106 | 0.17913 | 37298 ft | 457 kts | 225° |
| 2026-03-27 12:53 | 43.27332 | 0.12164 | 37303 ft | 456 kts | 225° |
| 2026-03-27 12:54 | 43.22563 | 0.06424 | 37283 ft | 456 kts | 225° |
| 2026-03-27 12:54 | 43.15409 | -0.02163 | 37278 ft | 455 kts | 225° |
| 2026-03-27 12:55 | 43.10643 | -0.07862 | 37284 ft | 454 kts | 225° |
| 2026-03-27 12:55 | 43.05881 | -0.13548 | 37281 ft | 454 kts | 225° |
| 2026-03-27 12:56 | 43.01117 | -0.19219 | 37272 ft | 454 kts | 225° |
| 2026-03-27 12:56 | 42.96316 | -0.24949 | 37236 ft | 463 kts | 225° |
| 2026-03-27 12:57 | 42.91443 | -0.30730 | 37204 ft | 464 kts | 225° |
| 2026-03-27 12:57 | 42.86556 | -0.36506 | 37205 ft | 466 kts | 225° |
| 2026-03-27 12:58 | 42.81589 | -0.42174 | 37175 ft | 468 kts | 218° |
| 2026-03-27 12:58 | 42.75741 | -0.46202 | 37129 ft | 476 kts | 203° |
| 2026-03-27 12:59 | 42.69560 | -0.49436 | 37121 ft | 476 kts | 204° |
| 2026-03-27 12:59 | 42.63384 | -0.52671 | 37099 ft | 475 kts | 204° |
| 2026-03-27 13:00 | 42.57204 | -0.55918 | 37077 ft | 477 kts | 203° |
| 2026-03-27 13:00 | 42.51014 | -0.59159 | 37040 ft | 477 kts | 203° |
| 2026-03-27 13:01 | 42.44834 | -0.62398 | 37041 ft | 476 kts | 203° |
| 2026-03-27 13:01 | 42.38644 | -0.65621 | 37026 ft | 477 kts | 203° |
| 2026-03-27 13:02 | 42.32448 | -0.68845 | 37050 ft | 477 kts | 203° |
| 2026-03-27 13:02 | 42.26256 | -0.72060 | 37055 ft | 477 kts | 203° |
| 2026-03-27 13:03 | 42.20070 | -0.75258 | 37053 ft | 476 kts | 203° |
| 2026-03-27 13:03 | 42.13937 | -0.78414 | 37067 ft | 474 kts | 203° |
| 2026-03-27 13:04 | 42.07795 | -0.81588 | 37091 ft | 472 kts | 203° |
| 2026-03-27 13:04 | 42.01659 | -0.84745 | 37098 ft | 472 kts | 203° |
| 2026-03-27 13:05 | 41.95536 | -0.87896 | 37094 ft | 471 kts | 203° |
| 2026-03-27 13:05 | 41.89384 | -0.91059 | 37090 ft | 470 kts | 203° |
| 2026-03-27 13:06 | 41.83314 | -0.94166 | 37120 ft | 470 kts | 203° |
| 2026-03-27 13:06 | 41.77203 | -0.97279 | 37121 ft | 470 kts | 203° |
| 2026-03-27 13:07 | 41.71091 | -1.00379 | 37113 ft | 470 kts | 203° |
| 2026-03-27 13:07 | 41.65244 | -1.04159 | 37108 ft | 464 kts | 218° |
| 2026-03-27 13:08 | 41.60343 | -1.09679 | 37104 ft | 460 kts | 226° |
| 2026-03-27 13:08 | 41.55587 | -1.15424 | 37071 ft | 461 kts | 225° |
| 2026-03-27 13:09 | 41.50820 | -1.21149 | 37107 ft | 461 kts | 225° |
| 2026-03-27 13:09 | 41.46060 | -1.26871 | 37135 ft | 460 kts | 225° |
| 2026-03-27 13:10 | 41.41298 | -1.32580 | 37140 ft | 460 kts | 225° |
| 2026-03-27 13:10 | 41.36534 | -1.38265 | 37137 ft | 460 kts | 225° |
| 2026-03-27 13:11 | 41.31778 | -1.43944 | 37129 ft | 459 kts | 225° |
| 2026-03-27 13:11 | 41.27024 | -1.49619 | 37124 ft | 459 kts | 225° |
| 2026-03-27 13:12 | 41.22270 | -1.55275 | 37101 ft | 458 kts | 225° |
| 2026-03-27 13:12 | 41.17519 | -1.60915 | 37110 ft | 458 kts | 225° |
| 2026-03-27 13:13 | 41.12774 | -1.66538 | 37109 ft | 457 kts | 225° |
| 2026-03-27 13:13 | 41.08031 | -1.72148 | 37101 ft | 458 kts | 225° |
| 2026-03-27 13:14 | 41.03274 | -1.77753 | 37094 ft | 457 kts | 225° |
| 2026-03-27 13:14 | 40.98524 | -1.83353 | 37087 ft | 457 kts | 225° |
| 2026-03-27 13:15 | 40.93767 | -1.88940 | 37083 ft | 457 kts | 225° |
| 2026-03-27 13:15 | 40.89002 | -1.94521 | 37067 ft | 457 kts | 224° |
| 2026-03-27 13:16 | 40.84243 | -2.00099 | 37076 ft | 457 kts | 224° |
| 2026-03-27 13:16 | 40.79481 | -2.05672 | 37083 ft | 458 kts | 224° |
| 2026-03-27 13:17 | 40.75481 | -2.10327 | 37091 ft | 458 kts | 224° |
| 2026-03-27 13:17 | 40.70703 | -2.15863 | 37080 ft | 457 kts | 224° |
| 2026-03-27 13:18 | 40.65926 | -2.21396 | 37084 ft | 457 kts | 224° |
| 2026-03-27 13:18 | 40.61153 | -2.26923 | 37073 ft | 457 kts | 224° |
| 2026-03-27 13:19 | 40.56372 | -2.32443 | 37065 ft | 457 kts | 224° |
| 2026-03-27 13:19 | 40.51591 | -2.37953 | 37069 ft | 456 kts | 224° |
| 2026-03-27 13:20 | 40.46809 | -2.43441 | 37073 ft | 457 kts | 224° |
| 2026-03-27 13:20 | 40.42025 | -2.48933 | 37078 ft | 457 kts | 223° |
| 2026-03-27 13:21 | 40.37872 | -2.55132 | 37078 ft | 450 kts | 242° |
| 2026-03-27 13:21 | 40.35451 | -2.62576 | 37080 ft | 442 kts | 258° |
| 2026-03-27 13:22 | 40.33793 | -2.70336 | 37067 ft | 442 kts | 257° |
| 2026-03-27 13:22 | 40.32089 | -2.78091 | 37074 ft | 443 kts | 257° |
| 2026-03-27 13:23 | 40.30392 | -2.85855 | 37073 ft | 443 kts | 257° |
| 2026-03-27 13:23 | 40.28701 | -2.93617 | 37081 ft | 443 kts | 257° |
| 2026-03-27 13:24 | 40.26993 | -3.01380 | 37082 ft | 444 kts | 257° |
| 2026-03-27 13:24 | 40.25280 | -3.09142 | 37073 ft | 443 kts | 257° |
| 2026-03-27 13:25 | 40.23558 | -3.16893 | 37079 ft | 444 kts | 257° |
| 2026-03-27 13:25 | 40.21820 | -3.24644 | 37087 ft | 444 kts | 257° |
| 2026-03-27 13:26 | 40.20086 | -3.32395 | 37085 ft | 444 kts | 257° |
| 2026-03-27 13:26 | 40.18358 | -3.40154 | 37089 ft | 445 kts | 257° |
| 2026-03-27 13:27 | 40.16633 | -3.47872 | 37086 ft | 445 kts | 257° |
| 2026-03-27 13:27 | 40.14888 | -3.55653 | 37095 ft | 446 kts | 257° |
| 2026-03-27 13:28 | 40.13130 | -3.63427 | 37102 ft | 446 kts | 256° |
| 2026-03-27 13:28 | 40.10577 | -3.70825 | 37103 ft | 452 kts | 237° |
| 2026-03-27 13:29 | 40.06211 | -3.76737 | 37091 ft | 457 kts | 217° |
| 2026-03-27 13:29 | 40.00941 | -3.81382 | 37089 ft | 457 kts | 215° |
| 2026-03-27 13:30 | 39.95663 | -3.86022 | 37077 ft | 458 kts | 215° |
| 2026-03-27 13:30 | 39.90378 | -3.90667 | 37082 ft | 458 kts | 215° |
| 2026-03-27 13:31 | 39.85086 | -3.95295 | 37085 ft | 458 kts | 215° |
| 2026-03-27 13:31 | 39.79792 | -3.99919 | 37080 ft | 458 kts | 215° |
| 2026-03-27 13:32 | 39.74492 | -4.04534 | 37085 ft | 459 kts | 215° |
| 2026-03-27 13:32 | 39.69187 | -4.09141 | 37078 ft | 458 kts | 214° |
| 2026-03-27 13:33 | 39.63891 | -4.13745 | 37090 ft | 458 kts | 214° |
| 2026-03-27 13:33 | 39.58589 | -4.18347 | 37082 ft | 459 kts | 214° |
| 2026-03-27 13:34 | 39.53287 | -4.22943 | 37090 ft | 458 kts | 214° |
| 2026-03-27 13:34 | 39.47983 | -4.27529 | 37091 ft | 458 kts | 214° |
| 2026-03-27 13:35 | 39.42677 | -4.32092 | 37083 ft | 458 kts | 214° |
| 2026-03-27 13:35 | 39.37370 | -4.36654 | 37086 ft | 458 kts | 214° |
| 2026-03-27 13:36 | 39.32062 | -4.41211 | 37080 ft | 458 kts | 214° |
| 2026-03-27 13:36 | 39.26759 | -4.45760 | 37076 ft | 458 kts | 214° |
| 2026-03-27 13:37 | 39.21452 | -4.50305 | 37081 ft | 458 kts | 213° |
| 2026-03-27 13:37 | 39.16136 | -4.54842 | 37078 ft | 458 kts | 213° |
| 2026-03-27 13:38 | 39.10825 | -4.59368 | 37066 ft | 457 kts | 213° |
| 2026-03-27 13:38 | 39.05513 | -4.63888 | 37001 ft | 459 kts | 213° |
| 2026-03-27 13:39 | 39.02851 | -4.66154 | 36740 ft | 459 kts | 213° |
| 2026-03-27 13:39 | 39.00200 | -4.68412 | 36318 ft | 455 kts | 213° |
| 2026-03-27 13:39 | 38.97565 | -4.70655 | 35806 ft | 452 kts | 213° |
| 2026-03-27 13:39 | 38.94952 | -4.72874 | 35302 ft | 449 kts | 213° |
| 2026-03-27 13:40 | 38.92354 | -4.75074 | 34792 ft | 446 kts | 213° |
| 2026-03-27 13:40 | 38.89764 | -4.77262 | 34288 ft | 444 kts | 213° |
| 2026-03-27 13:40 | 38.87190 | -4.79435 | 33746 ft | 442 kts | 213° |
| 2026-03-27 13:40 | 38.84632 | -4.81593 | 33248 ft | 438 kts | 213° |
| 2026-03-27 13:41 | 38.82093 | -4.83728 | 32749 ft | 435 kts | 213° |
| 2026-03-27 13:41 | 38.79571 | -4.85850 | 32256 ft | 432 kts | 213° |
| 2026-03-27 13:41 | 38.77070 | -4.87956 | 31774 ft | 429 kts | 213° |
| 2026-03-27 13:41 | 38.74583 | -4.90051 | 31296 ft | 426 kts | 213° |
| 2026-03-27 13:42 | 38.72116 | -4.92133 | 30833 ft | 424 kts | 213° |
| 2026-03-27 13:42 | 38.69664 | -4.94201 | 30371 ft | 421 kts | 213° |
| 2026-03-27 13:42 | 38.67224 | -4.96253 | 29871 ft | 418 kts | 214° |
| 2026-03-27 13:42 | 38.64800 | -4.98283 | 29438 ft | 414 kts | 214° |
| 2026-03-27 13:43 | 38.60026 | -5.02279 | 28586 ft | 406 kts | 214° |
| 2026-03-27 13:43 | 38.57673 | -5.04247 | 28163 ft | 403 kts | 214° |
| 2026-03-27 13:43 | 38.55335 | -5.06196 | 27742 ft | 399 kts | 214° |
| 2026-03-27 13:44 | 38.53023 | -5.08124 | 27323 ft | 396 kts | 214° |
| 2026-03-27 13:44 | 38.50748 | -5.10086 | 26886 ft | 393 kts | 219° |
| 2026-03-27 13:44 | 38.48678 | -5.12328 | 26468 ft | 389 kts | 222° |
| 2026-03-27 13:44 | 38.46643 | -5.14588 | 26028 ft | 387 kts | 222° |
| 2026-03-27 13:45 | 38.44616 | -5.16830 | 25592 ft | 385 kts | 222° |
| 2026-03-27 13:45 | 38.42597 | -5.19058 | 25144 ft | 383 kts | 222° |
| 2026-03-27 13:45 | 38.40582 | -5.21275 | 24690 ft | 382 kts | 222° |
| 2026-03-27 13:45 | 38.38573 | -5.23481 | 24234 ft | 381 kts | 222° |
| 2026-03-27 13:46 | 38.36566 | -5.25685 | 23770 ft | 380 kts | 222° |
| 2026-03-27 13:46 | 38.34565 | -5.27886 | 23236 ft | 380 kts | 222° |
| 2026-03-27 13:46 | 38.32577 | -5.30078 | 22794 ft | 377 kts | 222° |
| 2026-03-27 13:46 | 38.30599 | -5.32254 | 22341 ft | 374 kts | 222° |
| 2026-03-27 13:47 | 38.28631 | -5.34414 | 21896 ft | 372 kts | 222° |
| 2026-03-27 13:47 | 38.26679 | -5.36553 | 21465 ft | 369 kts | 222° |
| 2026-03-27 13:47 | 38.24736 | -5.38676 | 21024 ft | 367 kts | 221° |
| 2026-03-27 13:47 | 38.22802 | -5.40790 | 20601 ft | 366 kts | 222° |
| 2026-03-27 13:48 | 38.20878 | -5.42896 | 20174 ft | 364 kts | 222° |
| 2026-03-27 13:48 | 38.18957 | -5.44993 | 19749 ft | 363 kts | 221° |
| 2026-03-27 13:48 | 38.17043 | -5.47079 | 19326 ft | 362 kts | 221° |
| 2026-03-27 13:48 | 38.15133 | -5.49163 | 18895 ft | 361 kts | 222° |
| 2026-03-27 13:49 | 38.13229 | -5.51243 | 18476 ft | 361 kts | 221° |
| 2026-03-27 13:49 | 38.11329 | -5.53317 | 18026 ft | 360 kts | 222° |
| 2026-03-27 13:49 | 38.09437 | -5.55383 | 17605 ft | 358 kts | 221° |
| 2026-03-27 13:49 | 38.07553 | -5.57435 | 17200 ft | 356 kts | 221° |
| 2026-03-27 13:50 | 38.05680 | -5.59472 | 16802 ft | 354 kts | 221° |
| 2026-03-27 13:50 | 38.03816 | -5.61499 | 16397 ft | 353 kts | 221° |
| 2026-03-27 13:50 | 38.01956 | -5.63519 | 16009 ft | 350 kts | 221° |
| 2026-03-27 13:50 | 38.00111 | -5.65527 | 15619 ft | 349 kts | 221° |
| 2026-03-27 13:51 | 37.98271 | -5.67526 | 15249 ft | 348 kts | 221° |
| 2026-03-27 13:51 | 37.96439 | -5.69513 | 14911 ft | 345 kts | 221° |
| 2026-03-27 13:51 | 37.94622 | -5.71480 | 14577 ft | 342 kts | 221° |
| 2026-03-27 13:51 | 37.92814 | -5.73434 | 14251 ft | 340 kts | 221° |
| 2026-03-27 13:52 | 37.91043 | -5.75346 | 13928 ft | 339 kts | 221° |
| 2026-03-27 13:52 | 37.89232 | -5.77299 | 13567 ft | 336 kts | 221° |
| 2026-03-27 13:52 | 37.87456 | -5.79213 | 13201 ft | 334 kts | 221° |
| 2026-03-27 13:52 | 37.85693 | -5.81115 | 12836 ft | 333 kts | 221° |
| 2026-03-27 13:53 | 37.83963 | -5.82984 | 12493 ft | 331 kts | 221° |
| 2026-03-27 13:53 | 37.82200 | -5.84891 | 12130 ft | 328 kts | 221° |
| 2026-03-27 13:53 | 37.80496 | -5.86733 | 11793 ft | 325 kts | 221° |
| 2026-03-27 13:53 | 37.78759 | -5.88608 | 11440 ft | 323 kts | 221° |
| 2026-03-27 13:54 | 37.77058 | -5.90441 | 11101 ft | 320 kts | 221° |
| 2026-03-27 13:54 | 37.75388 | -5.92235 | 10760 ft | 319 kts | 221° |
| 2026-03-27 13:54 | 37.73703 | -5.94043 | 10440 ft | 317 kts | 221° |
| 2026-03-27 13:54 | 37.72002 | -5.95866 | 10098 ft | 316 kts | 221° |
| 2026-03-27 13:55 | 37.70335 | -5.97654 | 9719 ft | 310 kts | 221° |
| 2026-03-27 13:55 | 37.68743 | -5.99362 | 9333 ft | 298 kts | 221° |
| 2026-03-27 13:55 | 37.67187 | -6.01028 | 8964 ft | 289 kts | 221° |
| 2026-03-27 13:55 | 37.65687 | -6.02745 | 8615 ft | 286 kts | 225° |
| 2026-03-27 13:56 | 37.64304 | -6.04484 | 8284 ft | 284 kts | 224° |
| 2026-03-27 13:56 | 37.62849 | -6.06147 | 7958 ft | 281 kts | 219° |
| 2026-03-27 13:56 | 37.61322 | -6.07666 | 7646 ft | 278 kts | 216° |
| 2026-03-27 13:56 | 37.59747 | -6.09045 | 7336 ft | 274 kts | 212° |
| 2026-03-27 13:57 | 37.58128 | -6.10284 | 7022 ft | 271 kts | 208° |
| 2026-03-27 13:57 | 37.56453 | -6.11371 | 6664 ft | 270 kts | 203° |
| 2026-03-27 13:57 | 37.55295 | -6.12020 | 6434 ft | 267 kts | 200° |
| 2026-03-27 13:57 | 37.53056 | -6.13106 | 5948 ft | 255 kts | 197° |
| 2026-03-27 13:58 | 37.51399 | -6.13774 | 5578 ft | 246 kts | 194° |
| 2026-03-27 13:58 | 37.50304 | -6.14148 | 5406 ft | 238 kts | 192° |
| 2026-03-27 13:58 | 37.48231 | -6.14722 | 5075 ft | 223 kts | 188° |
| 2026-03-27 13:58 | 37.47211 | -6.14937 | 4896 ft | 218 kts | 186° |
| 2026-03-27 13:59 | 37.45703 | -6.15156 | 4621 ft | 219 kts | 178° |
| 2026-03-27 13:59 | 37.44236 | -6.14864 | 4308 ft | 209 kts | 155° |
| 2026-03-27 13:59 | 37.43023 | -6.13964 | 4016 ft | 199 kts | 136° |
| 2026-03-27 13:59 | 37.42169 | -6.12634 | 3637 ft | 195 kts | 115° |
| 2026-03-27 14:00 | 37.41742 | -6.11051 | 3269 ft | 191 kts | 96° |
| 2026-03-27 14:00 | 37.41703 | -6.09394 | 2925 ft | 188 kts | 88° |
| 2026-03-27 14:00 | 37.41712 | -6.07772 | 2657 ft | 183 kts | 88° |
| 2026-03-27 14:00 | 37.41720 | -6.06185 | 2409 ft | 180 kts | 87° |
| 2026-03-27 14:01 | 37.41727 | -6.04640 | 2180 ft | 173 kts | 87° |
| 2026-03-27 14:01 | 37.41734 | -6.03186 | 1951 ft | 164 kts | 86° |
| 2026-03-27 14:01 | 37.41740 | -6.01814 | 1761 ft | 147 kts | 86° |
| 2026-03-27 14:01 | 37.41747 | -6.00549 | 1553 ft | 140 kts | 87° |
| 2026-03-27 14:02 | 37.41751 | -5.99358 | 1359 ft | 133 kts | 85° |
| 2026-03-27 14:02 | 37.41757 | -5.98220 | 1197 ft | 130 kts | 87° |
| 2026-03-27 14:02 | 37.41762 | -5.97068 | 1020 ft | 130 kts | 86° |
| 2026-03-27 14:02 | 37.41768 | -5.95946 | 849 ft | 129 kts | 84° |
| 2026-03-27 14:03 | 37.41775 | -5.94797 | 708 ft | 130 kts | 85° |
| 2026-03-27 14:03 | 37.41780 | -5.93682 | 517 ft | 127 kts | 86° |
| 2026-03-27 14:03 | 37.41784 | -5.92545 | 356 ft | 132 kts | 88° |
| 2026-03-27 14:03 | 37.41787 | -5.91402 | 170 ft | 129 kts | 85° |
| 2026-03-27 14:04 | 37.41792 | -5.90335 | 97 ft | 105 kts | 89° |
| 2026-03-27 14:04 | 37.41793 | -5.89630 | 98 ft | 56 kts | 90° |
| 2026-03-27 14:04 | 37.41794 | -5.89341 | 100 ft | 13 kts | 90° |
| 2026-03-27 14:04 | 37.41819 | -5.89246 | 100 ft | 11 kts | 12° |
| 2026-03-27 14:05 | 37.41883 | -5.89284 | 99 ft | 9 kts | 330° |
| 2026-03-27 14:05 | 37.41936 | -5.89322 | 100 ft | 8 kts | 329° |
| 2026-03-27 14:05 | 37.41981 | -5.89357 | 99 ft | 7 kts | 324° |
| 2026-03-27 14:05 | 37.42023 | -5.89409 | 100 ft | 12 kts | 314° |
| 2026-03-27 14:06 | 37.42078 | -5.89480 | 98 ft | 11 kts | 314° |
| 2026-03-27 14:06 | 37.42130 | -5.89547 | 97 ft | 11 kts | 314° |
| 2026-03-27 14:06 | 37.42184 | -5.89615 | 95 ft | 11 kts | 314° |
| 2026-03-27 14:06 | 37.42238 | -5.89686 | 94 ft | 11 kts | 314° |
| 2026-03-27 14:07 | 37.42285 | -5.89730 | 94 ft | 7 kts | 336° |
| 2026-03-27 14:07 | 37.42318 | -5.89762 | 96 ft | 5 kts | 315° |
| 2026-03-27 14:07 | 37.42334 | -5.89782 | 94 ft | 2 kts | 315° |
| 2026-03-27 14:07 | 37.42340 | -5.89790 | 94 ft | 0 kts | 315° |